sensor_id;sensor_type;location;lat;lon;timestamp;pressure;altitude;pressure_sealevel;temperature;humidity
62418;BME280;48456;54.242;10.280;2022-11-20T00:01:12;100966.72;;;-0.68;100.00
62418;BME280;48456;54.242;10.280;2022-11-20T00:03:39;100972.88;;;-0.66;100.00
62418;BME280;48456;54.242;10.280;2022-11-20T00:06:06;100971.94;;;-0.68;100.00
62418;BME280;48456;54.242;10.280;2022-11-20T00:08:33;100970.28;;;-0.66;100.00
62418;BME280;48456;54.242;10.280;2022-11-20T00:11:18;100977.22;;;-0.64;100.00
62418;BME280;48456;54.242;10.280;2022-11-20T00:13:46;100977.22;;;-0.64;100.00
62418;BME280;48456;54.242;10.280;2022-11-20T00:16:14;100970.34;;;-0.64;100.00
62418;BME280;48456;54.242;10.280;2022-11-20T00:18:40;100961.56;;;-0.66;100.00
62418;BME280;48456;54.242;10.280;2022-11-20T00:21:15;100970.19;;;-0.67;100.00
62418;BME280;48456;54.242;10.280;2022-11-20T00:23:42;100964.16;;;-0.66;100.00
62418;BME280;48456;54.242;10.280;2022-11-20T00:26:10;100966.78;;;-0.66;100.00
62418;BME280;48456;54.242;10.280;2022-11-20T00:28:37;100965.00;;;-0.67;100.00
62418;BME280;48456;54.242;10.280;2022-11-20T00:31:04;100969.38;;;-0.66;100.00
62418;BME280;48456;54.242;10.280;2022-11-20T00:33:31;100972.78;;;-0.67;100.00
62418;BME280;48456;54.242;10.280;2022-11-20T00:36:01;100966.78;;;-0.66;100.00
62418;BME280;48456;54.242;10.280;2022-11-20T00:38:27;100959.88;;;-0.66;100.00
62418;BME280;48456;54.242;10.280;2022-11-20T00:40:54;100967.75;;;-0.64;100.00
62418;BME280;48456;54.242;10.280;2022-11-20T00:43:21;100964.31;;;-0.63;100.00
62418;BME280;48456;54.242;10.280;2022-11-20T00:45:47;100959.19;;;-0.61;100.00
62418;BME280;48456;54.242;10.280;2022-11-20T00:48:13;100963.44;;;-0.63;100.00
62418;BME280;48456;54.242;10.280;2022-11-20T00:50:40;100969.31;;;-0.68;100.00
62418;BME280;48456;54.242;10.280;2022-11-20T00:53:07;100958.94;;;-0.68;100.00
62418;BME280;48456;54.242;10.280;2022-11-20T00:55:33;100962.22;;;-0.72;100.00
62418;BME280;48456;54.242;10.280;2022-11-20T00:57:59;100957.03;;;-0.72;100.00
62418;BME280;48456;54.242;10.280;2022-11-20T01:00:29;100958.78;;;-0.71;100.00
62418;BME280;48456;54.242;10.280;2022-11-20T01:02:56;100959.53;;;-0.73;100.00
62418;BME280;48456;54.242;10.280;2022-11-20T01:05:22;100954.22;;;-0.76;100.00
62418;BME280;48456;54.242;10.280;2022-11-20T01:07:49;100951.38;;;-0.81;100.00
62418;BME280;48456;54.242;10.280;2022-11-20T01:10:15;100950.38;;;-0.85;100.00
62418;BME280;48456;54.242;10.280;2022-11-20T01:12:42;100946.00;;;-0.86;100.00
62418;BME280;48456;54.242;10.280;2022-11-20T01:15:08;100947.63;;;-0.88;100.00
62418;BME280;48456;54.242;10.280;2022-11-20T01:17:35;100949.47;;;-0.85;100.00
62418;BME280;48456;54.242;10.280;2022-11-20T01:20:01;100942.59;;;-0.85;100.00
62418;BME280;48456;54.242;10.280;2022-11-20T01:22:27;100938.28;;;-0.84;100.00
62418;BME280;48456;54.242;10.280;2022-11-20T01:24:54;100935.81;;;-0.81;100.00
62418;BME280;48456;54.242;10.280;2022-11-20T01:27:20;100942.81;;;-0.80;100.00
62418;BME280;48456;54.242;10.280;2022-11-20T01:29:46;100941.97;;;-0.79;100.00
62418;BME280;48456;54.242;10.280;2022-11-20T01:32:13;100940.28;;;-0.79;100.00
62418;BME280;48456;54.242;10.280;2022-11-20T01:34:39;100937.72;;;-0.77;100.00
62418;BME280;48456;54.242;10.280;2022-11-20T01:37:06;100930.81;;;-0.76;100.00
62418;BME280;48456;54.242;10.280;2022-11-20T01:39:32;100926.53;;;-0.76;100.00
62418;BME280;48456;54.242;10.280;2022-11-20T01:41:59;100929.25;;;-0.73;100.00
62418;BME280;48456;54.242;10.280;2022-11-20T01:44:56;100929.25;;;-0.73;100.00
62418;BME280;48456;54.242;10.280;2022-11-20T01:49:50;100916.13;;;-0.76;100.00
62418;BME280;48456;54.242;10.280;2022-11-20T01:52:20;100923.94;;;-0.76;100.00
62418;BME280;48456;54.242;10.280;2022-11-20T01:54:52;100918.84;;;-0.73;100.00
62418;BME280;48456;54.242;10.280;2022-11-20T01:57:20;100901.50;;;-0.74;100.00
62418;BME280;48456;54.242;10.280;2022-11-20T01:59:50;100909.22;;;-0.75;100.00
62418;BME280;48456;54.242;10.280;2022-11-20T02:02:18;100902.19;;;-0.78;100.00
62418;BME280;48456;54.242;10.280;2022-11-20T02:04:44;100897.97;;;-0.76;100.00
62418;BME280;48456;54.242;10.280;2022-11-20T02:07:11;100892.75;;;-0.76;100.00
62418;BME280;48456;54.242;10.280;2022-11-20T02:09:37;100892.75;;;-0.76;100.00
62418;BME280;48456;54.242;10.280;2022-11-20T02:12:04;100892.00;;;-0.73;100.00
62418;BME280;48456;54.242;10.280;2022-11-20T02:14:30;100892.00;;;-0.73;100.00
62418;BME280;48456;54.242;10.280;2022-11-20T02:16:57;100891.09;;;-0.74;100.00
62418;BME280;48456;54.242;10.280;2022-11-20T02:24:35;100878.31;;;-0.69;100.00
62418;BME280;48456;54.242;10.280;2022-11-20T02:30:13;100884.53;;;-0.66;100.00
62418;BME280;48456;54.242;10.280;2022-11-20T02:32:21;100880.16;;;-0.67;100.00
62418;BME280;48456;54.242;10.280;2022-11-20T02:34:48;100875.09;;;-0.63;100.00
62418;BME280;48456;54.242;10.280;2022-11-20T02:37:14;100876.66;;;-0.67;100.00
62418;BME280;48456;54.242;10.280;2022-11-20T02:39:41;100883.63;;;-0.66;100.00
62418;BME280;48456;54.242;10.280;2022-11-20T02:42:09;100879.34;;;-0.66;100.00
62418;BME280;48456;54.242;10.280;2022-11-20T02:44:36;100878.41;;;-0.68;100.00
62418;BME280;48456;54.242;10.280;2022-11-20T02:47:02;100875.66;;;-0.71;100.00
62418;BME280;48456;54.242;10.280;2022-11-20T02:49:29;100872.22;;;-0.70;100.00
62418;BME280;48456;54.242;10.280;2022-11-20T02:51:55;100867.84;;;-0.71;100.00
62418;BME280;48456;54.242;10.280;2022-11-20T02:54:22;100872.09;;;-0.73;100.00
62418;BME280;48456;54.242;10.280;2022-11-20T02:56:48;100869.38;;;-0.76;100.00
62418;BME280;48456;54.242;10.280;2022-11-20T02:59:15;100861.44;;;-0.79;100.00
62418;BME280;48456;54.242;10.280;2022-11-20T03:01:41;100873.47;;;-0.81;100.00
62418;BME280;48456;54.242;10.280;2022-11-20T03:04:08;100875.94;;;-0.84;100.00
62418;BME280;48456;54.242;10.280;2022-11-20T03:06:34;100873.34;;;-0.84;100.00
62418;BME280;48456;54.242;10.280;2022-11-20T03:09:01;100872.53;;;-0.83;100.00
62418;BME280;48456;54.242;10.280;2022-11-20T03:11:27;100877.72;;;-0.83;100.00
62418;BME280;48456;54.242;10.280;2022-11-20T03:13:54;100878.53;;;-0.84;100.00
62418;BME280;48456;54.242;10.280;2022-11-20T03:16:21;100874.22;;;-0.84;100.00
62418;BME280;48456;54.242;10.280;2022-11-20T03:18:48;100865.34;;;-0.89;100.00
62418;BME280;48456;54.242;10.280;2022-11-20T03:21:15;100867.00;;;-0.91;100.00
62418;BME280;48456;54.242;10.280;2022-11-20T03:23:42;100868.69;;;-0.92;100.00
62418;BME280;48456;54.242;10.280;2022-11-20T03:28:35;100869.59;;;-0.91;100.00
62418;BME280;48456;54.242;10.280;2022-11-20T03:31:09;100871.31;;;-0.92;100.00
62418;BME280;48456;54.242;10.280;2022-11-20T03:33:35;100862.59;;;-0.92;100.00
62418;BME280;48456;54.242;10.280;2022-11-20T03:36:05;100876.50;;;-0.92;100.00
62418;BME280;48456;54.242;10.280;2022-11-20T03:38:32;100860.91;;;-0.92;100.00
62418;BME280;48456;54.242;10.280;2022-11-20T03:41:02;100867.00;;;-0.91;100.00
62418;BME280;48456;54.242;10.280;2022-11-20T03:43:30;100862.69;;;-0.90;100.00
62418;BME280;48456;54.242;10.280;2022-11-20T03:45:56;100858.25;;;-0.93;100.00
62418;BME280;48456;54.242;10.280;2022-11-20T03:48:23;100860.09;;;-0.90;100.00
62418;BME280;48456;54.242;10.280;2022-11-20T03:50:50;100859.28;;;-0.89;100.00
62418;BME280;48456;54.242;10.280;2022-11-20T03:53:16;100861.81;;;-0.91;100.00
62418;BME280;48456;54.242;10.280;2022-11-20T03:55:43;100861.88;;;-0.89;100.00
62418;BME280;48456;54.242;10.280;2022-11-20T03:58:10;100861.06;;;-0.88;100.00
62418;BME280;48456;54.242;10.280;2022-11-20T04:00:36;100858.47;;;-0.88;100.00
62418;BME280;48456;54.242;10.280;2022-11-20T04:03:03;100863.72;;;-0.87;100.00
62418;BME280;48456;54.242;10.280;2022-11-20T04:05:29;100861.13;;;-0.87;100.00
62418;BME280;48456;54.242;10.280;2022-11-20T04:07:56;100860.22;;;-0.87;100.00
62418;BME280;48456;54.242;10.280;2022-11-20T04:10:23;100850.59;;;-0.90;100.00
62418;BME280;48456;54.242;10.280;2022-11-20T04:12:49;100850.59;;;-0.90;100.00
62418;BME280;48456;54.242;10.280;2022-11-20T04:15:16;100846.31;;;-0.89;100.00
62418;BME280;48456;54.242;10.280;2022-11-20T04:17:44;100849.84;;;-0.87;100.00
62418;BME280;48456;54.242;10.280;2022-11-20T04:20:10;100842.13;;;-0.86;100.00
62418;BME280;48456;54.242;10.280;2022-11-20T04:22:38;100841.16;;;-0.88;100.00
62418;BME280;48456;54.242;10.280;2022-11-20T04:25:04;100842.03;;;-0.87;100.00
62418;BME280;48456;54.242;10.280;2022-11-20T04:27:31;100849.84;;;-0.87;100.00
62418;BME280;48456;54.242;10.280;2022-11-20T04:29:57;100846.41;;;-0.86;100.00
62418;BME280;48456;54.242;10.280;2022-11-20T04:32:23;100841.28;;;-0.85;100.00
62418;BME280;48456;54.242;10.280;2022-11-20T04:34:50;100842.19;;;-0.84;100.00
62418;BME280;48456;54.242;10.280;2022-11-20T04:37:16;100840.44;;;-0.84;100.00
62418;BME280;48456;54.242;10.280;2022-11-20T04:39:43;100833.41;;;-0.86;100.00
62418;BME280;48456;54.242;10.280;2022-11-20T04:42:09;100836.03;;;-0.86;100.00
62418;BME280;48456;54.242;10.280;2022-11-20T04:44:54;100836.03;;;-0.86;100.00
62418;BME280;48456;54.242;10.280;2022-11-20T04:47:21;100832.56;;;-0.87;100.00
62418;BME280;48456;54.242;10.280;2022-11-20T04:49:47;100832.56;;;-0.87;100.00
62418;BME280;48456;54.242;10.280;2022-11-20T04:52:13;100830.97;;;-0.83;100.00
62418;BME280;48456;54.242;10.280;2022-11-20T04:54:40;100838.75;;;-0.83;100.00
62418;BME280;48456;54.242;10.280;2022-11-20T04:57:06;100837.94;;;-0.82;100.00
62418;BME280;48456;54.242;10.280;2022-11-20T04:59:39;100844.84;;;-0.83;100.00
62418;BME280;48456;54.242;10.280;2022-11-20T05:02:06;100842.25;;;-0.83;100.00
62418;BME280;48456;54.242;10.280;2022-11-20T05:04:32;100839.69;;;-0.81;100.00
62418;BME280;48456;54.242;10.280;2022-11-20T05:06:58;100831.91;;;-0.81;100.00
62418;BME280;48456;54.242;10.280;2022-11-20T05:09:25;100831.03;;;-0.82;100.00
62418;BME280;48456;54.242;10.280;2022-11-20T05:11:51;100835.41;;;-0.81;100.00
62418;BME280;48456;54.242;10.280;2022-11-20T05:14:18;100826.78;;;-0.80;100.00
62418;BME280;48456;54.242;10.280;2022-11-20T05:16:44;100830.28;;;-0.79;100.00
62418;BME280;48456;54.242;10.280;2022-11-20T05:19:11;100822.41;;;-0.81;100.00
62418;BME280;48456;54.242;10.280;2022-11-20T05:21:37;100823.31;;;-0.80;100.00
62418;BME280;48456;54.242;10.280;2022-11-20T05:24:03;100821.50;;;-0.81;100.00
62418;BME280;48456;54.242;10.280;2022-11-20T05:26:30;100823.31;;;-0.80;100.00
62418;BME280;48456;54.242;10.280;2022-11-20T05:28:57;100827.69;;;-0.79;100.00
62418;BME280;48456;54.242;10.280;2022-11-20T05:31:24;100823.41;;;-0.77;100.00
62418;BME280;48456;54.242;10.280;2022-11-20T05:33:53;100816.47;;;-0.78;100.00
62418;BME280;48456;54.242;10.280;2022-11-20T05:36:20;100809.50;;;-0.79;100.00
62418;BME280;48456;54.242;10.280;2022-11-20T05:38:46;100813.78;;;-0.80;100.00
62418;BME280;48456;54.242;10.280;2022-11-20T05:41:17;100812.84;;;-0.82;100.00
62418;BME280;48456;54.242;10.280;2022-11-20T05:43:44;100806.75;;;-0.82;100.00
62418;BME280;48456;54.242;10.280;2022-11-20T05:46:12;100806.91;;;-0.79;100.00
62418;BME280;48456;54.242;10.280;2022-11-20T05:48:40;100809.44;;;-0.81;100.00
62418;BME280;48456;54.242;10.280;2022-11-20T05:51:08;100797.28;;;-0.82;100.00
62418;BME280;48456;54.242;10.280;2022-11-20T05:53:35;100806.06;;;-0.78;100.00
62418;BME280;48456;54.242;10.280;2022-11-20T05:56:17;100799.03;;;-0.81;100.00
62418;BME280;48456;54.242;10.280;2022-11-20T05:58:44;100803.34;;;-0.81;100.00
62418;BME280;48456;54.242;10.280;2022-11-20T06:01:15;100803.28;;;-0.83;100.00
62418;BME280;48456;54.242;10.280;2022-11-20T06:03:42;100806.63;;;-0.85;100.00
62418;BME280;48456;54.242;10.280;2022-11-20T06:06:12;100799.72;;;-0.85;100.00
62418;BME280;48456;54.242;10.280;2022-11-20T06:08:39;100792.75;;;-0.86;100.00
62418;BME280;48456;54.242;10.280;2022-11-20T06:11:09;100797.06;;;-0.86;100.00
62418;BME280;48456;54.242;10.280;2022-11-20T06:13:36;100797.97;;;-0.86;100.00
62418;BME280;48456;54.242;10.280;2022-11-20T06:16:07;100798.78;;;-0.87;100.00
62418;BME280;48456;54.242;10.280;2022-11-20T06:18:34;100789.28;;;-0.86;100.00
62418;BME280;48456;54.242;10.280;2022-11-20T06:21:05;100781.41;;;-0.88;100.00
62418;BME280;48456;54.242;10.280;2022-11-20T06:23:32;100789.97;;;-0.90;100.00
62418;BME280;48456;54.242;10.280;2022-11-20T06:26:06;100800.34;;;-0.90;100.00
62418;BME280;48456;54.242;10.280;2022-11-20T06:28:33;100792.50;;;-0.92;100.00
62418;BME280;48456;54.242;10.280;2022-11-20T06:31:00;100788.00;;;-0.96;100.00
62418;BME280;48456;54.242;10.280;2022-11-20T06:33:26;100784.53;;;-0.97;100.00
62418;BME280;48456;54.242;10.280;2022-11-20T06:35:56;100792.25;;;-0.98;100.00
62418;BME280;48456;54.242;10.280;2022-11-20T06:38:27;100787.94;;;-0.98;100.00
62418;BME280;48456;54.242;10.280;2022-11-20T06:40:54;100787.88;;;-0.99;100.00
62418;BME280;48456;54.242;10.280;2022-11-20T06:43:20;100787.75;;;-1.02;100.00
62418;BME280;48456;54.242;10.280;2022-11-20T06:45:54;100778.25;;;-1.02;100.00
62418;BME280;48456;54.242;10.280;2022-11-20T06:48:22;100779.19;;;-1.00;100.00
62418;BME280;48456;54.242;10.280;2022-11-20T06:50:48;100782.75;;;-0.98;100.00
62418;BME280;48456;54.242;10.280;2022-11-20T06:53:15;100784.53;;;-0.97;100.00
62418;BME280;48456;54.242;10.280;2022-11-20T06:55:42;100777.66;;;-0.95;100.00
62418;BME280;48456;54.242;10.280;2022-11-20T06:58:10;100775.28;;;-0.90;100.00
62418;BME280;48456;54.242;10.280;2022-11-20T07:00:36;100776.19;;;-0.89;100.00
62418;BME280;48456;54.242;10.280;2022-11-20T07:03:06;100770.09;;;-0.90;100.00
62418;BME280;48456;54.242;10.280;2022-11-20T07:05:33;100779.47;;;-0.94;100.00
62418;BME280;48456;54.242;10.280;2022-11-20T07:07:59;100780.19;;;-0.96;100.00
62418;BME280;48456;54.242;10.280;2022-11-20T07:10:26;100777.59;;;-0.96;100.00
62418;BME280;48456;54.242;10.280;2022-11-20T07:12:53;100770.78;;;-0.94;100.00
62418;BME280;48456;54.242;10.280;2022-11-20T07:15:20;100776.88;;;-0.94;100.00
62418;BME280;48456;54.242;10.280;2022-11-20T07:17:47;100776.91;;;-0.92;100.00
62418;BME280;48456;54.242;10.280;2022-11-20T07:20:13;100782.94;;;-0.93;100.00
62418;BME280;48456;54.242;10.280;2022-11-20T07:22:39;100783.56;;;-0.99;100.00
62418;BME280;48456;54.242;10.280;2022-11-20T07:25:06;100782.47;;;-1.04;100.00
62418;BME280;48456;54.242;10.280;2022-11-20T07:27:33;100780.72;;;-1.05;100.00
62418;BME280;48456;54.242;10.280;2022-11-20T07:30:00;100785.28;;;-0.99;100.00
62418;BME280;48456;54.242;10.280;2022-11-20T07:32:27;100780.97;;;-0.99;100.00
62418;BME280;48456;54.242;10.280;2022-11-20T07:34:53;100786.16;;;-0.99;100.00
62418;BME280;48456;54.242;10.280;2022-11-20T07:37:24;100779.31;;;-0.97;100.00
62418;BME280;48456;54.242;10.280;2022-11-20T07:40:02;100780.47;;;-0.90;100.00
62418;BME280;48456;54.242;10.280;2022-11-20T07:42:30;100783.44;;;-0.81;100.00
62418;BME280;48456;54.242;10.280;2022-11-20T07:45:03;100785.41;;;-0.75;100.00
62418;BME280;48456;54.242;10.280;2022-11-20T07:47:34;100778.78;;;-0.68;100.00
62418;BME280;48456;54.242;10.280;2022-11-20T07:50:01;100775.34;;;-0.67;100.00
62418;BME280;48456;54.242;10.280;2022-11-20T07:52:28;100782.38;;;-0.64;100.00
62418;BME280;48456;54.242;10.280;2022-11-20T07:54:54;100778.13;;;-0.62;100.00
62418;BME280;48456;54.242;10.280;2022-11-20T07:57:21;100784.47;;;-0.56;100.00
62418;BME280;48456;54.242;10.280;2022-11-20T07:59:53;100781.84;;;-0.34;100.00
62418;BME280;48456;54.242;10.280;2022-11-20T08:02:19;100780.13;;;-0.12;100.00
62418;BME280;48456;54.242;10.280;2022-11-20T08:04:46;100784.19;;;0.04;100.00
62418;BME280;48456;54.242;10.280;2022-11-20T08:07:12;100785.19;;;0.07;100.00
62418;BME280;48456;54.242;10.280;2022-11-20T08:09:39;100791.00;;;0.00;100.00
62418;BME280;48456;54.242;10.280;2022-11-20T08:12:05;100792.16;;;-0.15;100.00
62418;BME280;48456;54.242;10.280;2022-11-20T08:14:50;100797.56;;;-0.31;100.00
62418;BME280;48456;54.242;10.280;2022-11-20T08:17:17;100795.31;;;-0.45;100.00
62418;BME280;48456;54.242;10.280;2022-11-20T08:19:43;100791.63;;;-0.50;100.00
62418;BME280;48456;54.242;10.280;2022-11-20T08:22:10;100788.19;;;-0.49;100.00
62418;BME280;48456;54.242;10.280;2022-11-20T08:24:36;100790.81;;;-0.49;100.00
62418;BME280;48456;54.242;10.280;2022-11-20T08:27:02;100788.41;;;-0.44;100.00
62418;BME280;48456;54.242;10.280;2022-11-20T08:29:29;100794.59;;;-0.41;100.00
62418;BME280;48456;54.242;10.280;2022-11-20T08:31:55;100784.97;;;-0.43;100.00
62418;BME280;48456;54.242;10.280;2022-11-20T08:34:22;100786.59;;;-0.45;100.00
62418;BME280;48456;54.242;10.280;2022-11-20T08:36:48;100787.44;;;-0.46;100.00
62418;BME280;48456;54.242;10.280;2022-11-20T08:39:14;100792.47;;;-0.51;100.00
62418;BME280;48456;54.242;10.280;2022-11-20T08:41:41;100794.03;;;-0.55;100.00
62418;BME280;48456;54.242;10.280;2022-11-20T08:44:07;100796.69;;;-0.53;100.00
62418;BME280;48456;54.242;10.280;2022-11-20T08:46:35;100788.13;;;-0.50;100.00
62418;BME280;48456;54.242;10.280;2022-11-20T08:49:08;100798.81;;;-0.44;100.00
62418;BME280;48456;54.242;10.280;2022-11-20T08:51:35;100801.56;;;-0.18;100.00
62418;BME280;48456;54.242;10.280;2022-11-20T08:54:01;100802.09;;;0.19;100.00
62418;BME280;48456;54.242;10.280;2022-11-20T08:56:28;100792.63;;;0.44;100.00
62418;BME280;48456;54.242;10.280;2022-11-20T08:58:54;100791.06;;;0.49;100.00
62418;BME280;48456;54.242;10.280;2022-11-20T09:01:41;100787.22;;;0.39;100.00
62418;BME280;48456;54.242;10.280;2022-11-20T09:04:07;100793.09;;;0.33;100.00
62418;BME280;48456;54.242;10.280;2022-11-20T09:06:33;100791.41;;;0.11;100.00
62418;BME280;48456;54.242;10.280;2022-11-20T09:09:00;100789.91;;;-0.05;100.00
62418;BME280;48456;54.242;10.280;2022-11-20T09:11:32;100796.09;;;-0.24;100.00
62418;BME280;48456;54.242;10.280;2022-11-20T09:13:58;100795.16;;;-0.27;100.00
62418;BME280;48456;54.242;10.280;2022-11-20T09:16:24;100791.84;;;-0.22;100.00
62418;BME280;48456;54.242;10.280;2022-11-20T09:18:51;100796.50;;;-0.14;100.00
62418;BME280;48456;54.242;10.280;2022-11-20T09:21:37;100799.78;;;0.04;100.00
62418;BME280;48456;54.242;10.280;2022-11-20T09:24:04;100801.38;;;0.23;100.00
62418;BME280;48456;54.242;10.280;2022-11-20T09:26:31;100802.41;;;0.51;100.00
62418;BME280;48456;54.242;10.280;2022-11-20T09:28:58;100813.84;;;0.79;100.00
62418;BME280;48456;54.242;10.280;2022-11-20T09:31:24;100803.19;;;0.97;100.00
62418;BME280;48456;54.242;10.280;2022-11-20T09:33:52;100802.63;;;0.82;100.00
62418;BME280;48456;54.242;10.280;2022-11-20T09:36:18;100817.09;;;0.73;100.00
62418;BME280;48456;54.242;10.280;2022-11-20T09:38:45;100808.94;;;0.88;100.00
62418;BME280;48456;54.242;10.280;2022-11-20T09:46:47;100806.69;;;1.24;100.00
62418;BME280;48456;54.242;10.280;2022-11-20T09:52:05;100800.84;;;1.31;100.00
62418;BME280;48456;54.242;10.280;2022-11-20T09:54:35;100800.22;;;1.38;100.00
62418;BME280;48456;54.242;10.280;2022-11-20T09:57:05;100801.25;;;1.43;100.00
62418;BME280;48456;54.242;10.280;2022-11-20T09:59:41;100797.47;;;1.61;100.00
62418;BME280;48456;54.242;10.280;2022-11-20T10:02:16;100798.72;;;1.73;100.00
62418;BME280;48456;54.242;10.280;2022-11-20T10:04:45;100806.34;;;1.66;100.00
62418;BME280;48456;54.242;10.280;2022-11-20T10:07:19;100806.81;;;1.54;100.00
62418;BME280;48456;54.242;10.280;2022-11-20T10:10:03;100807.69;;;1.27;100.00
62418;BME280;48456;54.242;10.280;2022-11-20T10:15:25;100805.63;;;0.68;100.00
62418;BME280;48456;54.242;10.280;2022-11-20T10:17:58;100798.34;;;0.58;100.00
62418;BME280;48456;54.242;10.280;2022-11-20T10:28:30;100796.84;;;0.64;100.00
62418;BME280;48456;54.242;10.280;2022-11-20T10:31:03;100790.59;;;0.61;100.00
62418;BME280;48456;54.242;10.280;2022-11-20T10:33:34;100793.06;;;0.56;100.00
62418;BME280;48456;54.242;10.280;2022-11-20T10:36:23;100791.44;;;0.60;100.00
62418;BME280;48456;54.242;10.280;2022-11-20T10:38:54;100785.41;;;0.61;100.00
62418;BME280;48456;54.242;10.280;2022-11-20T10:41:31;100780.69;;;0.75;100.00
62418;BME280;48456;54.242;10.280;2022-11-20T10:44:15;100778.34;;;0.83;100.00
62418;BME280;48456;54.242;10.280;2022-11-20T10:47:08;100770.16;;;0.96;100.00
62418;BME280;48456;54.242;10.280;2022-11-20T10:49:36;100770.78;;;1.15;100.00
62418;BME280;48456;54.242;10.280;2022-11-20T10:52:10;100767.78;;;1.30;100.00
62418;BME280;48456;54.242;10.280;2022-11-20T10:57:30;100764.63;;;1.39;100.00
62418;BME280;48456;54.242;10.280;2022-11-20T11:00:03;100760.38;;;1.42;100.00
62418;BME280;48456;54.242;10.280;2022-11-20T11:05:31;100767.38;;;1.17;100.00
62418;BME280;48456;54.242;10.280;2022-11-20T11:07:54;100772.03;;;1.00;100.00
62418;BME280;48456;54.242;10.280;2022-11-20T11:10:24;100762.91;;;0.87;100.00
62418;BME280;48456;54.242;10.280;2022-11-20T11:12:52;100765.50;;;0.87;100.00
62418;BME280;48456;54.242;10.280;2022-11-20T11:15:38;100763.88;;;0.91;100.00
62418;BME280;48456;54.242;10.280;2022-11-20T11:18:07;100762.59;;;1.04;100.00
62418;BME280;48456;54.242;10.280;2022-11-20T11:20:34;100755.94;;;1.12;100.00
62418;BME280;48456;54.242;10.280;2022-11-20T11:23:01;100763.16;;;1.21;100.00
62418;BME280;48456;54.242;10.280;2022-11-20T11:25:31;100771.44;;;1.35;100.00
62418;BME280;48456;54.242;10.280;2022-11-20T11:30:28;100768.41;;;1.23;100.00
62418;BME280;48456;54.242;10.280;2022-11-20T11:33:06;100783.38;;;1.02;100.00
62418;BME280;48456;54.242;10.280;2022-11-20T11:35:33;100771.38;;;0.82;100.00
62418;BME280;48456;54.242;10.280;2022-11-20T11:38:03;100770.84;;;0.66;100.00
62418;BME280;48456;54.242;10.280;2022-11-20T11:40:32;100774.06;;;0.59;100.00
62418;BME280;48456;54.242;10.280;2022-11-20T11:43:01;100773.94;;;0.56;100.00
62418;BME280;48456;54.242;10.280;2022-11-20T11:45:28;100766.97;;;0.55;100.00
62418;BME280;48456;54.242;10.280;2022-11-20T11:47:56;100766.66;;;0.47;100.00
62418;BME280;48456;54.242;10.280;2022-11-20T11:50:25;100768.56;;;0.51;100.00
62418;BME280;48456;54.242;10.280;2022-11-20T11:53:03;100761.31;;;0.67;100.00
62418;BME280;48456;54.242;10.280;2022-11-20T12:00:54;100761.50;;;0.97;100.00
62418;BME280;48456;54.242;10.280;2022-11-20T12:05:49;100761.63;;;0.76;100.00
62418;BME280;48456;54.242;10.280;2022-11-20T12:08:18;100761.91;;;0.59;100.00
62418;BME280;48456;54.242;10.280;2022-11-20T12:10:59;100761.53;;;0.48;100.00
62418;BME280;48456;54.242;10.280;2022-11-20T12:16:14;100761.97;;;0.36;100.00
62418;BME280;48456;54.242;10.280;2022-11-20T12:18:43;100756.91;;;0.40;100.00
62418;BME280;48456;54.242;10.280;2022-11-20T12:26:13;100753.44;;;0.41;100.00
62418;BME280;48456;54.242;10.280;2022-11-20T12:28:49;100739.66;;;0.43;100.00
62418;BME280;48456;54.242;10.280;2022-11-20T12:36:24;100733.78;;;0.49;100.00
62418;BME280;48456;54.242;10.280;2022-11-20T12:44:34;100734.19;;;0.60;100.00
62418;BME280;48456;54.242;10.280;2022-11-20T12:53:40;100737.41;;;0.78;100.00
62418;BME280;48456;54.242;10.280;2022-11-20T13:06:45;100722.66;;;3.54;100.00
62418;BME280;48456;54.242;10.280;2022-11-20T13:09:13;100712.50;;;3.68;100.00
62418;BME280;48456;54.242;10.280;2022-11-20T13:17:00;100706.56;;;2.99;100.00
62418;BME280;48456;54.242;10.280;2022-11-20T13:19:31;100694.66;;;2.77;100.00
62418;BME280;48456;54.242;10.280;2022-11-20T13:21:58;100702.03;;;2.58;100.00
62418;BME280;48456;54.242;10.280;2022-11-20T13:24:28;100701.84;;;2.52;100.00
62418;BME280;48456;54.242;10.280;2022-11-20T13:27:00;100709.56;;;2.47;100.00
62418;BME280;48456;54.242;10.280;2022-11-20T13:29:26;100702.16;;;2.31;100.00
62418;BME280;48456;54.242;10.280;2022-11-20T13:32:01;100704.16;;;2.09;100.00
62418;BME280;48456;54.242;10.280;2022-11-20T13:34:33;100698.31;;;1.58;100.00
62418;BME280;48456;54.242;10.280;2022-11-20T13:36:59;100698.00;;;1.49;100.00
62418;BME280;48456;54.242;10.280;2022-11-20T13:39:31;100692.72;;;1.46;100.00
62418;BME280;48456;54.242;10.280;2022-11-20T13:44:47;100677.81;;;1.41;100.00
62418;BME280;48456;54.242;10.280;2022-11-20T13:47:20;100683.16;;;1.46;100.00
62418;BME280;48456;54.242;10.280;2022-11-20T13:49:48;100684.28;;;1.27;100.00
62418;BME280;48456;54.242;10.280;2022-11-20T13:59:58;100682.47;;;0.45;100.00
62418;BME280;48456;54.242;10.280;2022-11-20T14:02:26;100682.09;;;0.34;100.00
62418;BME280;48456;54.242;10.280;2022-11-20T14:04:53;100679.03;;;0.21;100.00
62418;BME280;48456;54.242;10.280;2022-11-20T14:07:23;100680.34;;;0.10;100.00
62418;BME280;48456;54.242;10.280;2022-11-20T14:09:51;100683.13;;;-0.10;100.00
62418;BME280;48456;54.242;10.280;2022-11-20T14:12:19;100686.25;;;-0.19;100.00
62418;BME280;48456;54.242;10.280;2022-11-20T14:14:50;100693.91;;;-0.23;100.00
62418;BME280;48456;54.242;10.280;2022-11-20T14:19:43;100688.44;;;-0.30;100.00
62418;BME280;48456;54.242;10.280;2022-11-20T14:22:24;100693.44;;;-0.36;100.00